createdAt,value
2018-12-20T00:01:17.796Z,4.60
2018-12-20T00:03:46.075Z,4.60
2018-12-20T00:06:14.358Z,4.70
2018-12-20T00:08:42.820Z,4.70
2018-12-20T00:11:11.111Z,4.70
2018-12-20T00:13:39.395Z,4.70
2018-12-20T00:16:07.756Z,4.70
2018-12-20T00:18:36.499Z,4.80
2018-12-20T00:21:04.783Z,4.90
2018-12-20T00:23:33.078Z,4.90
2018-12-20T00:26:01.507Z,4.90
2018-12-20T00:28:29.861Z,4.90
2018-12-20T00:30:58.246Z,5.00
2018-12-20T00:33:26.835Z,5.00
2018-12-20T00:35:55.366Z,5.00
2018-12-20T00:38:23.688Z,5.00
2018-12-20T00:40:52.047Z,5.00
2018-12-20T00:43:20.382Z,5.10
2018-12-20T00:45:48.831Z,5.10
2018-12-20T00:48:17.759Z,5.10
2018-12-20T00:50:46.238Z,5.20
2018-12-20T00:53:14.772Z,5.10
2018-12-20T00:55:43.349Z,5.20
2018-12-20T00:58:11.864Z,5.10
2018-12-20T01:00:40.227Z,5.10
2018-12-20T01:03:08.532Z,5.10
2018-12-20T01:05:36.982Z,5.10
2018-12-20T01:08:05.339Z,5.10
2018-12-20T01:10:34.213Z,5.00
2018-12-20T01:13:02.489Z,5.00
2018-12-20T01:15:30.920Z,4.90
2018-12-20T01:17:59.811Z,4.90
2018-12-20T01:20:28.285Z,4.90
2018-12-20T01:22:56.637Z,5.00
2018-12-20T01:25:24.959Z,5.00
2018-12-20T01:27:53.143Z,4.90
2018-12-20T01:30:21.547Z,4.90
2018-12-20T01:32:49.986Z,4.80
2018-12-20T01:35:18.260Z,4.70
2018-12-20T01:37:46.540Z,4.70
2018-12-20T01:40:14.790Z,4.60
2018-12-20T01:42:43.100Z,4.60
2018-12-20T01:45:11.354Z,4.60
2018-12-20T01:47:39.640Z,4.50
2018-12-20T01:50:08.750Z,4.50
2018-12-20T01:52:37.076Z,4.50
2018-12-20T01:55:05.850Z,4.50
2018-12-20T01:57:34.454Z,4.50
2018-12-20T02:00:04.498Z,4.50
2018-12-20T02:02:32.799Z,4.40
2018-12-20T02:05:01.127Z,4.50
2018-12-20T02:07:29.527Z,4.50
2018-12-20T02:09:57.818Z,4.50
2018-12-20T02:12:26.091Z,4.50
2018-12-20T02:15:01.439Z,4.60
2018-12-20T02:17:24.528Z,4.60
2018-12-20T02:19:52.895Z,4.60
2018-12-20T02:22:21.305Z,4.60
2018-12-20T02:24:49.530Z,4.60
2018-12-20T02:27:17.909Z,4.70
2018-12-20T02:29:46.387Z,4.70
2018-12-20T02:32:14.732Z,4.70
2018-12-20T02:34:43.050Z,4.80
2018-12-20T02:37:11.360Z,4.80
2018-12-20T02:39:39.772Z,4.80
2018-12-20T02:42:08.390Z,4.90
2018-12-20T02:44:36.930Z,4.90
2018-12-20T02:47:05.407Z,4.90
2018-12-20T02:49:33.848Z,4.90
2018-12-20T02:52:02.152Z,4.90
2018-12-20T02:54:30.543Z,4.90
2018-12-20T02:56:58.980Z,4.90
2018-12-20T02:59:27.361Z,4.90
2018-12-20T03:01:56.085Z,5.00
2018-12-20T03:04:24.329Z,5.00
2018-12-20T03:06:52.547Z,5.00
2018-12-20T03:09:21.083Z,5.00
2018-12-20T03:11:49.363Z,5.00
2018-12-20T03:14:17.781Z,5.00
2018-12-20T03:16:46.284Z,4.90
2018-12-20T03:19:14.594Z,5.00
2018-12-20T03:21:42.983Z,4.90
2018-12-20T03:24:11.297Z,4.90
2018-12-20T03:26:39.773Z,4.90
2018-12-20T03:29:08.149Z,5.00
2018-12-20T03:31:36.542Z,5.00
2018-12-20T03:34:04.944Z,5.00
2018-12-20T03:36:33.347Z,5.00
2018-12-20T03:39:01.781Z,5.10
2018-12-20T03:41:30.558Z,5.10
2018-12-20T03:43:58.955Z,5.10
2018-12-20T03:46:27.398Z,5.10
2018-12-20T03:48:55.769Z,5.10
2018-12-20T03:51:24.105Z,5.10
2018-12-20T03:53:52.400Z,5.10
2018-12-20T03:56:20.655Z,5.20
2018-12-20T03:58:48.903Z,5.20
2018-12-20T04:01:17.204Z,5.20
2018-12-20T04:03:45.519Z,5.20
2018-12-20T04:06:13.790Z,5.20
2018-12-20T04:08:42.255Z,5.20
2018-12-20T04:11:10.543Z,5.20
2018-12-20T04:13:39.030Z,5.10
2018-12-20T04:16:07.474Z,5.10
2018-12-20T04:18:35.862Z,5.10
2018-12-20T04:21:04.130Z,5.10
2018-12-20T04:23:32.620Z,5.10
2018-12-20T04:26:00.926Z,5.10
2018-12-20T04:28:29.458Z,5.00
2018-12-20T04:30:57.826Z,5.00
2018-12-20T04:33:26.194Z,5.00
2018-12-20T04:35:54.708Z,4.90
2018-12-20T04:38:23.706Z,5.00
2018-12-20T04:40:52.071Z,5.00
2018-12-20T04:43:21.239Z,5.00
2018-12-20T04:45:49.501Z,5.10
2018-12-20T04:48:17.741Z,5.10
2018-12-20T04:50:46.786Z,5.10
2018-12-20T04:53:15.170Z,5.10
2018-12-20T04:55:43.524Z,5.20
2018-12-20T04:58:11.993Z,5.20
2018-12-20T05:00:40.785Z,5.20
2018-12-20T05:03:09.159Z,5.30
2018-12-20T05:05:37.487Z,5.30
2018-12-20T05:08:06.019Z,5.30
2018-12-20T05:10:34.323Z,5.30
2018-12-20T05:13:02.539Z,5.30
2018-12-20T05:15:30.802Z,5.30
2018-12-20T05:17:59.297Z,5.40
2018-12-20T05:20:27.903Z,5.40
2018-12-20T05:22:56.211Z,5.50
2018-12-20T05:25:24.627Z,5.50
2018-12-20T05:27:52.994Z,5.50
2018-12-20T05:30:21.211Z,5.50
2018-12-20T05:32:49.763Z,5.50
2018-12-20T05:35:18.111Z,5.50
2018-12-20T05:37:46.414Z,5.50
2018-12-20T05:40:14.704Z,5.50
2018-12-20T05:42:43.107Z,5.50
2018-12-20T05:45:11.322Z,5.50
2018-12-20T05:47:39.639Z,5.50
2018-12-20T05:50:08.028Z,5.50
2018-12-20T05:52:36.419Z,5.50
2018-12-20T05:55:04.798Z,5.60
2018-12-20T05:57:33.074Z,6.00
2018-12-20T06:00:01.531Z,6.30
2018-12-20T06:02:29.942Z,6.40
2018-12-20T06:04:58.441Z,6.30
2018-12-20T06:07:26.796Z,6.30
2018-12-20T06:09:55.032Z,6.10
2018-12-20T06:12:23.266Z,6.00
2018-12-20T06:14:51.477Z,5.90
2018-12-20T06:17:19.875Z,5.80
2018-12-20T06:19:48.281Z,5.80
2018-12-20T06:22:16.584Z,5.70
2018-12-20T06:24:44.787Z,5.70
2018-12-20T06:27:13.097Z,5.60
2018-12-20T06:29:41.384Z,5.60
2018-12-20T06:32:09.623Z,5.60
2018-12-20T06:34:37.871Z,5.60
2018-12-20T06:37:06.103Z,5.60
2018-12-20T06:39:34.324Z,5.50
2018-12-20T06:42:02.633Z,5.50
2018-12-20T06:44:30.852Z,5.50
2018-12-20T06:46:59.051Z,5.50
2018-12-20T06:49:27.305Z,5.50
2018-12-20T06:51:56.023Z,5.40
2018-12-20T06:54:24.364Z,5.40
2018-12-20T06:56:52.580Z,5.40
2018-12-20T06:59:20.858Z,5.40
2018-12-20T07:01:49.071Z,5.40
2018-12-20T07:04:17.291Z,5.40
2018-12-20T07:06:45.687Z,5.40
2018-12-20T07:09:13.915Z,5.50
2018-12-20T07:11:42.263Z,5.50
2018-12-20T07:14:10.670Z,5.50
2018-12-20T07:16:38.964Z,5.50
2018-12-20T07:19:07.194Z,5.60
2018-12-20T07:21:35.448Z,5.60
2018-12-20T07:24:03.748Z,5.60
2018-12-20T07:26:31.962Z,5.60
2018-12-20T07:29:00.188Z,5.60
2018-12-20T07:31:28.447Z,5.60
2018-12-20T07:33:57.054Z,5.60
2018-12-20T07:36:25.302Z,5.60
2018-12-20T07:38:53.575Z,5.60
2018-12-20T07:41:21.780Z,5.60
2018-12-20T07:43:50.001Z,5.60
2018-12-20T07:46:18.331Z,5.50
2018-12-20T07:48:46.551Z,5.50
2018-12-20T07:51:14.828Z,5.60
2018-12-20T07:53:43.056Z,5.60
2018-12-20T07:56:11.315Z,5.60
2018-12-20T07:58:39.543Z,5.70
2018-12-20T08:01:07.751Z,5.70
2018-12-20T08:03:35.961Z,5.80
2018-12-20T08:06:04.221Z,5.90
2018-12-20T08:08:32.436Z,6.00
2018-12-20T08:11:00.646Z,6.00
2018-12-20T08:13:29.076Z,6.00
2018-12-20T08:15:57.430Z,6.10
2018-12-20T08:18:25.667Z,6.10
2018-12-20T08:20:53.878Z,6.10
2018-12-20T08:23:22.083Z,6.10
2018-12-20T08:25:50.305Z,6.00
2018-12-20T08:28:18.581Z,6.10
2018-12-20T08:30:46.850Z,6.20
2018-12-20T08:33:15.248Z,6.20
2018-12-20T08:35:44.066Z,6.20
2018-12-20T08:38:12.428Z,6.20
2018-12-20T08:40:40.795Z,6.20
2018-12-20T08:43:09.344Z,6.30
2018-12-20T08:45:37.651Z,6.30
2018-12-20T08:48:05.954Z,6.30
2018-12-20T08:50:34.202Z,6.40
2018-12-20T08:53:02.599Z,6.50
2018-12-20T08:55:30.859Z,6.40
2018-12-20T08:57:59.267Z,6.40
2018-12-20T09:00:27.506Z,6.50
2018-12-20T09:02:55.809Z,6.50
2018-12-20T09:05:24.063Z,6.60
2018-12-20T09:07:52.282Z,6.60
2018-12-20T09:10:20.503Z,6.70
2018-12-20T09:12:48.790Z,6.70
2018-12-20T09:15:17.073Z,6.70
2018-12-20T09:17:45.435Z,6.70
2018-12-20T09:20:13.722Z,6.80
2018-12-20T09:22:41.996Z,6.80
2018-12-20T09:25:10.211Z,6.80
2018-12-20T09:27:38.451Z,6.90
2018-12-20T09:30:07.851Z,6.80
2018-12-20T09:32:36.162Z,6.90
2018-12-20T09:35:05.021Z,6.90
2018-12-20T09:37:33.287Z,6.90
2018-12-20T09:40:01.596Z,7.00
2018-12-20T09:42:29.781Z,7.00
2018-12-20T09:44:58.052Z,7.00
2018-12-20T09:47:31.767Z,7.00
2018-12-20T09:50:00.025Z,7.10
2018-12-20T09:52:28.308Z,7.10
2018-12-20T09:54:56.559Z,7.10
2018-12-20T09:57:24.837Z,7.20
2018-12-20T09:59:53.061Z,7.20
2018-12-20T10:02:21.286Z,7.20
2018-12-20T10:04:49.621Z,7.30
2018-12-20T10:07:17.871Z,7.30
2018-12-20T10:09:46.213Z,7.30
2018-12-20T10:12:14.490Z,7.30
2018-12-20T10:14:42.742Z,7.40
2018-12-20T10:17:10.943Z,7.40
2018-12-20T10:19:39.149Z,7.40
2018-12-20T10:22:07.370Z,7.40
2018-12-20T10:24:35.589Z,7.50
2018-12-20T10:27:03.882Z,7.50
2018-12-20T10:29:32.117Z,7.50
2018-12-20T10:32:00.506Z,7.50
2018-12-20T10:34:28.707Z,7.50
2018-12-20T10:36:56.942Z,7.50
2018-12-20T10:39:25.326Z,7.50
2018-12-20T10:41:53.699Z,7.60
2018-12-20T10:44:21.976Z,7.60
2018-12-20T10:46:50.273Z,7.60
2018-12-20T10:49:18.532Z,7.60
2018-12-20T10:51:46.812Z,7.60
2018-12-20T10:54:15.079Z,7.70
2018-12-20T10:56:43.354Z,7.70
2018-12-20T10:59:11.558Z,7.70
2018-12-20T11:01:45.407Z,7.70
2018-12-20T11:07:34.151Z,7.80
2018-12-20T11:10:08.090Z,7.80
2018-12-20T11:12:41.735Z,7.90
2018-12-20T11:15:10.053Z,8.00
2018-12-20T11:17:38.380Z,7.90
2018-12-20T11:20:07.267Z,7.90
2018-12-20T11:22:35.547Z,7.90
2018-12-20T11:25:04.745Z,7.90
2018-12-20T11:27:33.114Z,8.00
2018-12-20T11:30:01.402Z,8.10
2018-12-20T11:32:29.772Z,8.10
2018-12-20T11:34:58.048Z,8.00
2018-12-20T11:37:26.251Z,8.00
2018-12-20T11:39:59.517Z,8.00
2018-12-20T11:42:24.695Z,8.00
2018-12-20T11:44:53.003Z,8.10
2018-12-20T11:47:27.286Z,8.10
2018-12-20T11:50:08.222Z,8.10
2018-12-20T11:52:42.343Z,8.10
2018-12-20T11:55:06.667Z,8.20
2018-12-20T11:57:34.971Z,8.20
2018-12-20T12:00:06.271Z,8.10
2018-12-20T12:02:34.499Z,8.10
2018-12-20T12:05:02.703Z,8.10
2018-12-20T12:07:30.997Z,8.20
2018-12-20T12:09:59.315Z,8.20
2018-12-20T12:12:27.524Z,8.10
2018-12-20T12:14:55.820Z,8.20
2018-12-20T12:17:24.151Z,8.20
2018-12-20T12:19:52.606Z,8.30
2018-12-20T12:22:21.145Z,8.20
2018-12-20T12:24:49.517Z,8.20
2018-12-20T12:27:17.711Z,8.30
2018-12-20T12:29:46.037Z,8.40
2018-12-20T12:32:14.308Z,8.40
2018-12-20T12:34:42.596Z,8.50
2018-12-20T12:37:10.883Z,8.50
2018-12-20T12:39:39.079Z,8.50
2018-12-20T12:42:07.333Z,8.70
2018-12-20T12:44:35.730Z,8.90
2018-12-20T12:47:05.956Z,9.20
2018-12-20T12:49:34.315Z,9.40
2018-12-20T12:52:02.532Z,9.50
2018-12-20T12:54:30.740Z,9.70
2018-12-20T12:56:58.967Z,9.80
2018-12-20T12:59:27.209Z,9.90
2018-12-20T13:01:55.437Z,10.10
2018-12-20T13:04:23.745Z,10.10
2018-12-20T13:06:51.985Z,10.10
2018-12-20T13:09:20.289Z,10.20
2018-12-20T13:11:48.663Z,10.40
2018-12-20T13:14:16.894Z,10.60
2018-12-20T13:16:45.141Z,10.60
2018-12-20T13:19:13.352Z,10.60
2018-12-20T13:21:41.571Z,10.50
2018-12-20T13:24:09.788Z,10.50
2018-12-20T13:26:38.236Z,10.50
2018-12-20T13:29:06.526Z,10.40
2018-12-20T13:31:35.926Z,10.40
2018-12-20T13:34:04.228Z,10.50
2018-12-20T13:36:32.442Z,10.60
2018-12-20T13:39:00.667Z,10.60
2018-12-20T13:41:28.938Z,10.60
2018-12-20T13:43:57.170Z,10.40
2018-12-20T13:46:25.386Z,10.30
2018-12-20T13:48:53.612Z,10.10
2018-12-20T13:51:21.827Z,10.00
2018-12-20T13:53:50.079Z,9.90
2018-12-20T13:56:18.319Z,9.80
2018-12-20T13:58:46.571Z,9.60
2018-12-20T14:01:14.884Z,9.40
2018-12-20T14:03:43.212Z,9.40
2018-12-20T14:06:11.554Z,9.30
2018-12-20T14:08:39.888Z,9.10
2018-12-20T14:11:08.319Z,9.00
2018-12-20T14:13:36.684Z,8.90
2018-12-20T14:16:05.489Z,8.90
2018-12-20T14:18:33.850Z,8.80
2018-12-20T14:21:02.072Z,8.80
2018-12-20T14:23:30.396Z,8.60
2018-12-20T14:25:58.693Z,8.60
2018-12-20T14:28:27.016Z,8.60
2018-12-20T14:30:55.283Z,8.50
2018-12-20T14:33:23.737Z,8.50
2018-12-20T14:35:52.003Z,8.50
2018-12-20T14:38:20.315Z,8.50
2018-12-20T14:40:48.527Z,8.40
2018-12-20T14:43:16.782Z,8.50
2018-12-20T14:45:44.989Z,8.50
2018-12-20T14:48:15.182Z,8.40
2018-12-20T14:50:43.380Z,8.40
2018-12-20T14:53:11.680Z,8.40
2018-12-20T14:55:39.907Z,8.40
2018-12-20T14:58:08.126Z,8.40
2018-12-20T15:00:36.419Z,8.40
2018-12-20T15:03:04.635Z,8.40
2018-12-20T15:05:32.845Z,8.30
2018-12-20T15:08:01.096Z,8.40
2018-12-20T15:10:29.303Z,8.30
2018-12-20T15:12:57.515Z,8.30
2018-12-20T15:15:25.740Z,8.20
2018-12-20T15:17:53.939Z,8.20
2018-12-20T15:20:22.192Z,8.20
2018-12-20T15:22:50.412Z,8.10
2018-12-20T15:25:18.664Z,8.10
2018-12-20T15:27:47.034Z,8.10
2018-12-20T15:30:15.313Z,8.10
2018-12-20T15:32:43.610Z,8.10
2018-12-20T15:35:11.832Z,8.10
2018-12-20T15:37:40.045Z,8.10
2018-12-20T15:40:08.878Z,8.10
2018-12-20T15:42:37.290Z,8.00
2018-12-20T15:45:07.305Z,8.00
2018-12-20T15:47:35.522Z,8.00
2018-12-20T15:50:06.535Z,8.00
2018-12-20T15:52:34.746Z,8.00
2018-12-20T15:55:03.560Z,8.00
2018-12-20T15:57:31.888Z,8.00
2018-12-20T16:00:00.175Z,7.90
2018-12-20T16:02:28.427Z,7.90
2018-12-20T16:04:56.679Z,7.90
2018-12-20T16:07:25.083Z,7.90
2018-12-20T16:09:53.605Z,7.90
2018-12-20T16:12:21.871Z,7.80
2018-12-20T16:14:50.113Z,7.90
2018-12-20T16:17:18.323Z,7.90
2018-12-20T16:19:46.663Z,7.90
2018-12-20T16:22:14.876Z,7.80
2018-12-20T16:24:43.121Z,7.80
2018-12-20T16:27:11.496Z,7.80
2018-12-20T16:29:39.745Z,7.80
2018-12-20T16:32:08.063Z,7.70
2018-12-20T16:34:36.302Z,7.70
2018-12-20T16:37:04.534Z,7.70
2018-12-20T16:39:32.783Z,7.60
2018-12-20T16:42:01.007Z,7.60
2018-12-20T16:44:29.279Z,7.60
2018-12-20T16:46:57.507Z,7.60
2018-12-20T16:49:25.796Z,7.50
2018-12-20T16:51:54.128Z,7.50
2018-12-20T16:54:22.375Z,7.50
2018-12-20T16:56:50.623Z,7.50
2018-12-20T16:59:18.830Z,7.40
2018-12-20T17:01:47.048Z,7.50
2018-12-20T17:04:15.330Z,7.40
2018-12-20T17:06:43.636Z,7.50
2018-12-20T17:09:11.909Z,7.50
2018-12-20T17:11:40.176Z,7.50
2018-12-20T17:14:08.406Z,7.40
2018-12-20T17:16:36.668Z,7.40
2018-12-20T17:19:05.131Z,7.40
2018-12-20T17:21:33.389Z,7.40
2018-12-20T17:24:01.658Z,7.40
2018-12-20T17:26:29.965Z,7.40
2018-12-20T17:28:58.193Z,7.40
2018-12-20T17:31:26.445Z,7.30
2018-12-20T17:33:54.650Z,7.30
2018-12-20T17:36:22.908Z,7.30
2018-12-20T17:38:51.211Z,7.30
2018-12-20T17:41:19.551Z,7.30
2018-12-20T17:43:47.772Z,7.30
2018-12-20T17:46:16.064Z,7.30
2018-12-20T17:48:44.362Z,7.30
2018-12-20T17:51:12.647Z,7.30
2018-12-20T17:53:40.894Z,7.30
2018-12-20T17:56:09.144Z,7.30
2018-12-20T17:58:37.365Z,7.30
2018-12-20T18:01:05.802Z,7.30
2018-12-20T18:03:34.070Z,7.40
2018-12-20T18:06:02.346Z,7.50
2018-12-20T18:08:30.618Z,7.60
2018-12-20T18:10:58.999Z,7.80
2018-12-20T18:13:27.331Z,7.90
2018-12-20T18:15:55.642Z,8.00
2018-12-20T18:18:23.941Z,7.80
2018-12-20T18:20:52.296Z,7.80
2018-12-20T18:23:20.634Z,7.70
2018-12-20T18:25:48.880Z,7.60
2018-12-20T18:28:17.109Z,7.50
2018-12-20T18:30:45.417Z,7.40
2018-12-20T18:33:13.727Z,7.40
2018-12-20T18:35:41.989Z,7.30
2018-12-20T18:38:10.206Z,7.30
2018-12-20T18:40:38.668Z,7.40
2018-12-20T18:43:06.889Z,7.30
2018-12-20T18:45:35.108Z,7.30
2018-12-20T18:48:03.358Z,7.30
2018-12-20T18:50:31.584Z,7.30
2018-12-20T18:52:59.851Z,7.30
2018-12-20T18:55:28.080Z,7.40
2018-12-20T18:57:56.344Z,7.40
2018-12-20T19:00:24.563Z,7.40
2018-12-20T19:02:52.803Z,7.40
2018-12-20T19:05:21.012Z,7.40
2018-12-20T19:07:49.451Z,7.40
2018-12-20T19:10:17.695Z,7.40
2018-12-20T19:12:46.052Z,7.50
2018-12-20T19:15:15.202Z,7.50
2018-12-20T19:17:43.482Z,7.50
2018-12-20T19:20:16.128Z,7.50
2018-12-20T19:22:42.011Z,7.50
2018-12-20T19:25:10.205Z,7.50
2018-12-20T19:27:38.504Z,7.50
2018-12-20T19:30:08.850Z,7.50
2018-12-20T19:32:37.228Z,7.50
2018-12-20T19:35:06.257Z,7.50
2018-12-20T19:37:34.525Z,7.50
2018-12-20T19:40:04.003Z,7.60
2018-12-20T19:42:32.251Z,7.60
2018-12-20T19:45:01.573Z,7.60
2018-12-20T19:47:29.826Z,7.60
2018-12-20T19:50:04.868Z,7.60
2018-12-20T19:52:28.276Z,7.50
2018-12-20T19:54:57.798Z,7.50
2018-12-20T19:57:26.170Z,7.50
2018-12-20T19:59:54.410Z,7.50
2018-12-20T20:02:22.623Z,7.50
2018-12-20T20:04:50.904Z,7.50
2018-12-20T20:07:19.184Z,7.50
2018-12-20T20:09:47.392Z,7.50
2018-12-20T20:12:15.803Z,7.40
2018-12-20T20:14:44.066Z,7.50
2018-12-20T20:17:12.496Z,7.40
2018-12-20T20:19:40.827Z,7.40
2018-12-20T20:22:09.259Z,7.50
2018-12-20T20:24:37.571Z,7.50
2018-12-20T20:27:05.924Z,7.40
2018-12-20T20:29:34.199Z,7.40
2018-12-20T20:32:02.460Z,7.40
2018-12-20T20:34:30.724Z,7.40
2018-12-20T20:36:59.023Z,7.40
2018-12-20T20:39:27.394Z,7.40
2018-12-20T20:41:55.714Z,7.40
2018-12-20T20:44:24.220Z,7.40
2018-12-20T20:46:52.650Z,7.30
2018-12-20T20:49:21.003Z,7.30
2018-12-20T20:51:49.346Z,7.30
2018-12-20T20:54:17.578Z,7.30
2018-12-20T20:56:45.920Z,7.30
2018-12-20T20:59:14.145Z,7.20
2018-12-20T21:01:42.444Z,7.20
2018-12-20T21:04:10.728Z,7.20
2018-12-20T21:06:46.856Z,7.20
2018-12-20T21:09:09.430Z,7.10
2018-12-20T21:11:37.648Z,7.10
2018-12-20T21:14:05.971Z,7.20
2018-12-20T21:16:35.082Z,7.10
2018-12-20T21:19:03.451Z,7.10
2018-12-20T21:21:31.826Z,7.10
2018-12-20T21:24:00.346Z,7.00
2018-12-20T21:26:28.556Z,7.00
2018-12-20T21:28:56.880Z,7.00
2018-12-20T21:31:25.110Z,7.00
2018-12-20T21:33:53.438Z,7.00
2018-12-20T21:36:21.652Z,6.90
2018-12-20T21:38:49.865Z,7.00
2018-12-20T21:41:18.133Z,7.00
2018-12-20T21:43:46.342Z,7.20
2018-12-20T21:46:14.651Z,7.30
2018-12-20T21:48:43.270Z,7.30
2018-12-20T21:51:11.584Z,7.30
2018-12-20T21:53:40.075Z,7.20
2018-12-20T21:56:08.431Z,7.20
2018-12-20T21:58:36.849Z,7.10
2018-12-20T22:01:05.226Z,7.10
2018-12-20T22:03:33.459Z,7.10
2018-12-20T22:06:01.727Z,7.10
2018-12-20T22:08:30.056Z,7.00
2018-12-20T22:10:58.318Z,7.00
2018-12-20T22:13:26.534Z,7.00
2018-12-20T22:15:54.748Z,7.00
2018-12-20T22:18:22.996Z,7.10
2018-12-20T22:20:51.295Z,7.00
2018-12-20T22:23:19.524Z,7.10
2018-12-20T22:25:47.754Z,7.10
2018-12-20T22:28:16.024Z,7.10
2018-12-20T22:30:44.274Z,7.10
2018-12-20T22:33:12.512Z,7.10
2018-12-20T22:35:40.743Z,7.10
2018-12-20T22:38:08.983Z,7.10
2018-12-20T22:40:37.221Z,7.10
2018-12-20T22:43:05.506Z,7.10
2018-12-20T22:45:33.740Z,7.10
2018-12-20T22:48:02.226Z,7.10
2018-12-20T22:50:30.571Z,7.10
2018-12-20T22:52:58.876Z,7.10
2018-12-20T22:55:28.067Z,7.10
2018-12-20T22:57:56.460Z,7.20
2018-12-20T23:00:24.706Z,7.20
2018-12-20T23:02:53.093Z,7.20
2018-12-20T23:05:21.300Z,7.10
2018-12-20T23:07:49.596Z,7.10
2018-12-20T23:10:18.131Z,7.00
2018-12-20T23:12:46.421Z,7.00
2018-12-20T23:15:14.635Z,7.00
2018-12-20T23:17:42.845Z,7.00
2018-12-20T23:20:11.053Z,7.00
2018-12-20T23:22:39.318Z,7.00
2018-12-20T23:25:07.680Z,7.00
2018-12-20T23:27:36.083Z,7.00
2018-12-20T23:30:05.971Z,7.00
2018-12-20T23:32:34.260Z,6.90
2018-12-20T23:35:02.555Z,6.90
2018-12-20T23:37:30.781Z,6.80
2018-12-20T23:39:58.994Z,6.80
2018-12-20T23:42:27.379Z,6.70
2018-12-20T23:44:55.606Z,6.80
2018-12-20T23:47:23.939Z,6.70
2018-12-20T23:49:52.163Z,6.70
2018-12-20T23:52:20.477Z,6.70
2018-12-20T23:54:48.832Z,6.70
2018-12-20T23:57:17.099Z,6.70
2018-12-20T23:59:45.308Z,6.70
